Isle Royale Natl Park, Michigan
Current Conditions -  °F | °C
As of 11:00 AM on Friday 19 Dec 2014 (Local Time) from CYQT Reporting Station
Overcast Overcast  
Wind Chill:   Ceiling: 2800
Heat Index:   Visibility: 20mi
Dew Point:   Wind: 0mph
Humidity: 85%   Direction: NA
Pressure: 30.32"   Gusts: NA
Location:  48°N, 89°W
Report Text: CYQT 191600Z 00000KT 20SM OVC028 M13/M15 A3032 RMK SC8 SLP287
Loading
Personal Weather Stations






























Interactive Weather Map New forecast layout! Learn more

10-Day Weather Forecast

Advertisements
Track Severe Weather on mobile